Coulterville, California
Current Conditions -  °F | °C
As of 9:55 AM on Friday 19 Dec 2014 (Local Time) from KO22 Reporting Station
Overcast Overcast  
Wind Chill: 46°   Ceiling: 4000
Heat Index: 48°   Visibility: 10mi
Dew Point: 48°   Wind: 5mph
Humidity: 100%   Direction: 140°SE
Pressure: 30.2"   Gusts: NA
Location:  37.71°N, 120.2°W
Report Text: KO22 191755Z AUTO 14004KT 10SM FEW028 BKN040 OVC047 09/09 A3020 RMK AO1
Loading
Personal Weather Stations






























Interactive Weather Map New forecast layout! Learn more

10-Day Weather Forecast

Advertisements
Track Severe Weather on mobile